Time;durP1;ratioP1;P1;durP2;ratioP2;P2;SDS_P1;SDS_P2;PMS_P1;PMS_P2;Temp;Humidity;BMP_temperature;BMP_pressure;BME280_temperature;BME280_humidity;BME280_pressure;Samples;Min_cycle;Max_cycle;Signal;HPM_P1;HPM_P2
2022/01/18 00:01:23;;;;;;;59.80;8.75;;;3.60;99.90;;;;;;5016304;28;20490;-48
2022/01/18 00:03:52;;;;;;;53.83;7.43;;;3.70;99.90;;;;;;5024589;28;20140;-47
2022/01/18 00:06:18;;;;;;;53.88;8.05;;;3.70;99.90;;;;;;5019471;28;20049;-47
2022/01/18 00:08:43;;;;;;;44.85;7.25;;;3.80;99.90;;;;;;5026536;28;21201;-48
2022/01/18 00:11:10;;;;;;;48.88;8.05;;;3.80;99.90;;;;;;5007780;28;20410;-47
2022/01/18 00:13:56;;;;;;;53.72;7.53;;;3.90;99.90;;;;;;5024639;28;20053;-47
2022/01/18 00:16:28;;;;;;;49.17;7.22;;;3.80;99.90;;;;;;5026209;28;20056;-47
2022/01/18 00:18:55;;;;;;;56.22;7.72;;;3.90;99.90;;;;;;5028465;28;20080;-46
2022/01/18 00:22:07;;;;;;;67.97;7.40;;;3.80;99.90;;;;;;5029450;28;20049;-48
2022/01/18 00:24:46;;;;;;;57.40;7.30;;;3.90;99.90;;;;;;5018370;28;20091;-47
2022/01/18 00:27:15;;;;;;;49.22;6.68;;;3.90;99.90;;;;;;5007833;28;20069;-50
2022/01/18 00:30:03;;;;;;;50.42;7.25;;;3.80;99.90;;;;;;5027665;28;20175;-48
2022/01/18 00:35:32;;;;;;;58.10;8.00;;;3.90;99.90;;;;;;4911293;29;20634;-48
2022/01/18 00:37:59;;;;;;;72.55;7.72;;;3.80;99.90;;;;;;4906159;29;20067;-51
2022/01/18 00:40:29;;;;;;;55.95;7.78;;;3.90;99.90;;;;;;4918129;29;20056;-47
2022/01/18 00:42:55;;;;;;;49.58;6.05;;;3.80;99.90;;;;;;4913957;29;20487;-49
2022/01/18 00:45:21;;;;;;;38.85;6.32;;;3.70;99.90;;;;;;4931077;29;20063;-48
2022/01/18 00:48:08;;;;;;;53.10;7.88;;;3.70;99.90;;;;;;4928005;29;20051;-50
2022/01/18 00:50:34;;;;;;;41.63;5.78;;;3.70;99.90;;;;;;4912079;29;20448;-47
2022/01/18 00:53:25;;;;;;;60.90;7.03;;;3.60;99.90;;;;;;4929872;29;20060;-48
2022/01/18 00:56:06;;;;;;;56.55;8.05;;;3.70;99.90;;;;;;4929239;29;20051;-48
2022/01/18 00:58:34;;;;;;;55.35;7.30;;;3.70;99.90;;;;;;4912696;29;20765;-49
2022/01/18 01:01:10;;;;;;;54.88;8.43;;;3.60;99.90;;;;;;4914998;29;20199;-51
2022/01/18 01:03:46;;;;;;;52.25;6.93;;;3.70;99.90;;;;;;4913547;29;20444;-51
2022/01/18 01:06:12;;;;;;;44.38;7.82;;;3.60;99.90;;;;;;4927251;29;20098;-47
2022/01/18 01:08:39;;;;;;;50.85;6.53;;;3.60;99.90;;;;;;4927154;29;20059;-49
2022/01/18 01:11:07;;;;;;;44.38;5.57;;;3.60;99.90;;;;;;4976761;28;20057;-48
2022/01/18 01:13:37;;;;;;;54.33;7.65;;;3.50;99.90;;;;;;5025600;28;20136;-50
2022/01/18 01:16:52;;;;;;;41.65;5.95;;;3.60;99.90;;;;;;5024568;28;20563;-48
2022/01/18 01:43:24;;;;;;;44.42;6.80;;;3.40;99.90;;;;;;5021814;28;20081;-48
2022/01/18 01:45:51;;;;;;;54.90;7.88;;;3.50;99.90;;;;;;5012409;28;20448;-49
2022/01/18 01:48:19;;;;;;;50.90;7.70;;;3.50;99.90;;;;;;5007653;28;20064;-49
2022/01/18 01:51:02;;;;;;;48.15;7.80;;;3.50;99.90;;;;;;4986424;28;20511;-49
2022/01/18 01:53:29;;;;;;;57.90;8.07;;;3.60;99.90;;;;;;5024493;28;20059;-48
2022/01/18 01:55:55;;;;;;;45.40;7.53;;;3.50;99.90;;;;;;5024265;28;20403;-48
2022/01/18 01:58:27;;;;;;;63.42;7.63;;;3.60;99.90;;;;;;5026918;28;20053;-48
2022/01/18 02:00:56;;;;;;;61.25;9.40;;;3.60;99.90;;;;;;5015198;28;20049;-49
2022/01/18 02:03:31;;;;;;;61.58;7.80;;;3.60;99.90;;;;;;5019587;28;20055;-48
2022/01/18 02:06:22;;;;;;;75.30;10.15;;;3.60;99.90;;;;;;5027241;28;20465;-48
2022/01/18 02:09:06;;;;;;;82.32;10.85;;;3.60;99.90;;;;;;5005864;28;20065;-48
2022/01/18 02:11:32;;;;;;;59.08;8.68;;;3.70;99.90;;;;;;5024818;28;20049;-50
2022/01/18 02:13:59;;;;;;;126.93;10.57;;;3.80;99.90;;;;;;5022668;28;20058;-47
2022/01/18 02:22:38;;;;;;;49.30;5.93;;;3.80;99.90;;;;;;5021704;28;20049;-48
2022/01/18 02:25:04;;;;;;;48.00;5.72;;;3.90;99.90;;;;;;5023754;28;20467;-50
2022/01/18 02:27:42;;;;;;;64.45;6.60;;;3.80;99.90;;;;;;5002442;28;20418;-49
2022/01/18 02:30:20;;;;;;;53.83;6.18;;;3.80;99.90;;;;;;4992034;28;20054;-47
2022/01/18 02:32:51;;;;;;;50.60;6.15;;;3.80;99.90;;;;;;5027621;28;20412;-47
2022/01/18 02:35:17;;;;;;;75.57;6.85;;;3.80;99.90;;;;;;5025632;28;20061;-48
2022/01/18 02:37:42;;;;;;;52.80;5.65;;;3.80;99.90;;;;;;5024916;28;20050;-50
2022/01/18 02:40:36;;;;;;;49.08;5.68;;;3.90;99.90;;;;;;5009498;28;20057;-49
2022/01/18 02:45:55;;;;;;;41.78;5.03;;;3.80;99.90;;;;;;5022678;28;20057;-48
2022/01/18 02:48:22;;;;;;;58.72;5.15;;;3.80;99.90;;;;;;5004643;28;20075;-49
2022/01/18 02:50:51;;;;;;;64.85;5.00;;;3.70;99.90;;;;;;5026265;28;20057;-48
2022/01/18 02:54:03;;;;;;;51.20;4.50;;;3.70;99.90;;;;;;5024322;28;20048;-49
2022/01/18 02:56:43;;;;;;;87.53;6.53;;;3.90;99.90;;;;;;5359714;22;20114;-46
2022/01/18 03:04:27;;;;;;;105.78;7.30;;;3.90;99.90;;;;;;5043386;28;20146;-46
2022/01/18 03:06:56;;;;;;;70.68;6.20;;;3.90;99.90;;;;;;5045073;28;20048;-46
2022/01/18 03:09:22;;;;;;;75.28;5.97;;;3.90;99.90;;;;;;5044325;28;20045;-46
2022/01/18 03:11:48;;;;;;;65.55;6.32;;;3.80;99.90;;;;;;5046263;28;20106;-46
2022/01/18 03:14:14;;;;;;;66.32;5.82;;;3.80;99.90;;;;;;5042950;28;20072;-46
2022/01/18 03:16:39;;;;;;;88.75;6.25;;;3.80;99.90;;;;;;5042889;28;20502;-46
2022/01/18 03:19:12;;;;;;;77.40;6.35;;;3.70;99.90;;;;;;5044092;28;20052;-46
2022/01/18 03:21:38;;;;;;;66.75;5.25;;;3.70;99.90;;;;;;5025640;28;20053;-46
2022/01/18 03:24:14;;;;;;;38.17;5.03;;;3.70;99.90;;;;;;5041414;28;20045;-46
2022/01/18 03:29:26;;;;;;;31.92;5.00;;;3.70;99.90;;;;;;5051932;28;20044;-46
2022/01/18 03:31:57;;;;;;;31.67;5.00;;;3.60;99.90;;;;;;5048390;28;20219;-46
2022/01/18 03:34:23;;;;;;;45.40;5.25;;;3.60;99.90;;;;;;5045799;28;20407;-46
2022/01/18 03:36:49;;;;;;;40.47;5.75;;;3.70;99.90;;;;;;5027738;28;20060;-46
2022/01/18 03:39:15;;;;;;;36.95;5.40;;;3.70;99.90;;;;;;5045381;28;20053;-46
2022/01/18 03:41:41;;;;;;;32.95;5.15;;;3.70;99.90;;;;;;5039550;28;20570;-46
2022/01/18 03:44:08;;;;;;;37.08;4.80;;;3.70;99.90;;;;;;5048109;28;20045;-47
2022/01/18 03:46:36;;;;;;;24.98;4.65;;;3.70;99.90;;;;;;5043777;28;20520;-47
2022/01/18 03:49:14;;;;;;;17.92;4.38;;;3.70;99.90;;;;;;5042032;28;20553;-46
2022/01/18 03:51:43;;;;;;;18.10;4.40;;;3.70;99.90;;;;;;5027543;28;20053;-47
2022/01/18 03:54:14;;;;;;;19.52;5.30;;;3.80;99.90;;;;;;5024370;28;20513;-46
2022/01/18 03:56:55;;;;;;;17.48;4.82;;;3.70;99.90;;;;;;5046641;28;20053;-46
2022/01/18 03:59:23;;;;;;;21.38;5.15;;;3.80;99.90;;;;;;5048622;28;20053;-46
2022/01/18 04:01:57;;;;;;;15.57;5.78;;;3.70;99.90;;;;;;5048181;28;20160;-46
2022/01/18 04:04:23;;;;;;;15.02;5.03;;;3.90;99.90;;;;;;5048804;28;20516;-46
2022/01/18 04:06:49;;;;;;;15.93;5.10;;;3.90;99.90;;;;;;5047967;28;20052;-48
2022/01/18 04:09:16;;;;;;;20.17;5.63;;;3.90;99.90;;;;;;5046108;28;20099;-46
2022/01/18 04:11:42;;;;;;;18.05;5.32;;;3.90;99.90;;;;;;5049845;28;20045;-49
2022/01/18 04:14:08;;;;;;;15.38;5.03;;;4.00;99.90;;;;;;5046642;28;20074;-50
2022/01/18 04:16:57;;;;;;;17.83;4.63;;;4.00;99.90;;;;;;5047098;28;20049;-46
2022/01/18 04:27:22;;;;;;;19.48;5.05;;;4.30;99.90;;;;;;5028810;28;20409;-46
2022/01/18 04:29:48;;;;;;;22.70;6.05;;;4.30;99.90;;;;;;5045605;28;20044;-51
2022/01/18 04:32:20;;;;;;;24.08;5.65;;;4.50;99.90;;;;;;5045818;28;20045;-48
2022/01/18 04:34:48;;;;;;;28.63;5.60;;;4.50;99.90;;;;;;5046179;28;20454;-46
2022/01/18 04:37:14;;;;;;;22.17;5.93;;;4.50;99.90;;;;;;5026434;28;20049;-46
2022/01/18 04:39:42;;;;;;;27.27;6.40;;;4.60;99.90;;;;;;5045386;28;20134;-46
2022/01/18 04:50:27;;;;;;;22.92;6.10;;;4.60;99.90;;;;;;5042080;28;20144;-46
2022/01/18 04:52:53;;;;;;;23.23;5.30;;;4.70;99.90;;;;;;5026220;28;20052;-48
2022/01/18 04:55:30;;;;;;;23.05;5.70;;;4.60;99.90;;;;;;5028090;28;20060;-46
2022/01/18 04:57:56;;;;;;;26.60;5.80;;;4.70;99.90;;;;;;5049633;28;20052;-46
2022/01/18 05:00:25;;;;;;;30.73;5.97;;;4.70;99.90;;;;;;5046478;28;20049;-48
2022/01/18 05:02:52;;;;;;;20.45;5.97;;;4.70;99.90;;;;;;5043453;28;20436;-47
2022/01/18 05:05:27;;;;;;;28.15;5.57;;;4.80;99.90;;;;;;5041268;28;20466;-47
2022/01/18 05:07:58;;;;;;;28.45;5.72;;;4.80;99.90;;;;;;5044127;28;20080;-46
2022/01/18 05:10:28;;;;;;;18.38;5.18;;;4.80;99.90;;;;;;5044460;28;20052;-46
2022/01/18 05:12:57;;;;;;;25.55;6.10;;;4.70;99.90;;;;;;5043936;28;20052;-49
2022/01/18 05:23:28;;;;;;;24.00;4.72;;;4.80;99.90;;;;;;5045286;28;20462;-46
2022/01/18 05:25:55;;;;;;;18.95;5.03;;;4.80;99.90;;;;;;5045456;28;20130;-47
2022/01/18 05:28:21;;;;;;;24.33;4.65;;;4.90;99.90;;;;;;5041408;28;20160;-46
2022/01/18 05:30:46;;;;;;;24.67;4.68;;;4.80;99.90;;;;;;5048241;28;20131;-46
2022/01/18 05:33:12;;;;;;;23.15;5.78;;;4.90;99.90;;;;;;5046090;28;20490;-46
2022/01/18 05:35:38;;;;;;;22.23;4.82;;;4.90;99.90;;;;;;5042825;28;20052;-47
2022/01/18 05:38:06;;;;;;;20.67;4.90;;;4.90;99.90;;;;;;5043618;28;20044;-46
2022/01/18 05:40:32;;;;;;;21.25;5.43;;;4.90;99.90;;;;;;5039626;28;20106;-48
2022/01/18 05:42:58;;;;;;;21.38;5.50;;;5.00;99.90;;;;;;5009451;28;20503;-46
2022/01/18 05:45:24;;;;;;;23.88;5.90;;;4.90;99.90;;;;;;5044323;28;20053;-49
2022/01/18 05:47:53;;;;;;;22.83;6.13;;;4.90;99.90;;;;;;5041978;28;20344;-48
2022/01/18 05:50:19;;;;;;;29.45;7.00;;;5.00;99.90;;;;;;5024880;28;20049;-49
2022/01/18 05:52:44;;;;;;;28.67;7.15;;;5.00;99.90;;;;;;5026462;28;20126;-47
2022/01/18 05:55:10;;;;;;;23.70;6.40;;;5.00;99.90;;;;;;5046654;28;20107;-48
2022/01/18 05:57:45;;;;;;;32.78;6.00;;;4.90;99.90;;;;;;5027797;28;20057;-47
2022/01/18 06:00:19;;;;;;;32.10;6.57;;;5.00;99.90;;;;;;5043806;28;20492;-47
2022/01/18 06:03:03;;;;;;;31.80;7.32;;;4.90;99.90;;;;;;5025127;28;20152;-47
2022/01/18 06:08:36;;;;;;;27.38;7.38;;;4.90;99.90;;;;;;5043566;28;20055;-47
2022/01/18 06:11:02;;;;;;;37.45;7.80;;;5.00;99.90;;;;;;5044682;28;20487;-47
2022/01/18 06:13:30;;;;;;;37.83;9.20;;;5.00;99.90;;;;;;5038901;28;20053;-48
2022/01/18 06:16:02;;;;;;;37.97;9.73;;;4.90;99.90;;;;;;5041789;28;20037;-47
2022/01/18 06:18:27;;;;;;;25.25;8.02;;;5.00;99.90;;;;;;5044048;28;20132;-46
2022/01/18 06:20:53;;;;;;;35.45;9.25;;;5.00;99.90;;;;;;5021122;28;20065;-49
2022/01/18 06:23:21;;;;;;;28.98;8.60;;;5.00;99.90;;;;;;5045612;28;20106;-46
2022/01/18 06:25:54;;;;;;;27.35;8.88;;;4.90;99.90;;;;;;5043845;28;20568;-48
2022/01/18 06:28:21;;;;;;;28.90;9.63;;;4.80;99.90;;;;;;5044235;28;20157;-50
2022/01/18 06:30:47;;;;;;;33.50;8.73;;;4.90;99.90;;;;;;5049265;28;20387;-47
2022/01/18 06:33:12;;;;;;;29.75;11.32;;;4.90;99.90;;;;;;5052238;28;20049;-48
2022/01/18 06:35:38;;;;;;;37.08;10.00;;;4.90;99.90;;;;;;5039939;28;20045;-48
2022/01/18 06:38:04;;;;;;;35.58;10.48;;;4.90;99.90;;;;;;5026995;28;20045;-49
2022/01/18 06:40:30;;;;;;;29.67;10.00;;;4.90;99.90;;;;;;5044152;28;20045;-48
2022/01/18 06:42:56;;;;;;;22.60;8.68;;;4.90;99.90;;;;;;5044139;28;20453;-47
2022/01/18 06:45:26;;;;;;;25.27;9.57;;;4.90;99.90;;;;;;5044684;28;20505;-46
2022/01/18 06:47:52;;;;;;;29.77;9.80;;;4.80;99.90;;;;;;5044332;28;20049;-48
2022/01/18 06:50:26;;;;;;;30.25;9.02;;;4.80;99.90;;;;;;5036489;28;20114;-48
2022/01/18 06:52:57;;;;;;;31.63;10.27;;;4.90;99.90;;;;;;5024776;28;20442;-47
2022/01/18 06:55:23;;;;;;;33.58;9.82;;;4.80;99.90;;;;;;5042916;28;20096;-49
2022/01/18 06:57:58;;;;;;;35.15;10.40;;;4.80;99.90;;;;;;5042227;28;20458;-47
2022/01/18 07:00:24;;;;;;;34.63;11.52;;;4.80;99.90;;;;;;5037776;28;20045;-47
2022/01/18 07:02:50;;;;;;;35.45;11.60;;;4.90;99.90;;;;;;5046661;28;20569;-47
2022/01/18 07:05:17;;;;;;;33.33;10.65;;;4.80;99.90;;;;;;5048113;28;20080;-46
2022/01/18 07:07:47;;;;;;;34.42;10.02;;;4.80;99.90;;;;;;5031725;28;20171;-49
2022/01/18 07:10:14;;;;;;;32.53;10.02;;;4.80;99.90;;;;;;5037062;28;20084;-48
2022/01/18 07:12:40;;;;;;;31.17;10.07;;;4.70;99.90;;;;;;5045334;28;20198;-46
2022/01/18 07:15:06;;;;;;;41.60;10.70;;;4.70;99.90;;;;;;5048290;28;20132;-47
2022/01/18 07:17:37;;;;;;;30.83;9.55;;;4.60;99.90;;;;;;5047235;28;20067;-46
2022/01/18 07:20:07;;;;;;;33.13;10.52;;;4.60;99.90;;;;;;5036854;28;20564;-46
2022/01/18 07:22:34;;;;;;;28.25;9.73;;;4.60;99.90;;;;;;5021982;28;20053;-48
2022/01/18 07:25:02;;;;;;;32.15;9.95;;;4.60;99.90;;;;;;5043462;28;20049;-46
2022/01/18 07:27:33;;;;;;;40.83;9.93;;;4.60;99.90;;;;;;5046480;28;20056;-47
2022/01/18 07:30:03;;;;;;;40.20;10.13;;;4.70;99.90;;;;;;5048996;28;20132;-47
2022/01/18 07:32:29;;;;;;;32.28;10.05;;;4.70;99.90;;;;;;5017503;28;20056;-46
2022/01/18 07:34:56;;;;;;;37.40;9.57;;;4.60;99.90;;;;;;5044381;28;20044;-50
2022/01/18 07:37:22;;;;;;;35.72;10.25;;;4.60;99.90;;;;;;5044959;28;20056;-48
2022/01/18 07:39:50;;;;;;;39.70;11.18;;;4.70;99.90;;;;;;5045156;28;20502;-47
2022/01/18 07:42:24;;;;;;;36.90;9.85;;;4.70;99.90;;;;;;5049278;28;20055;-46
2022/01/18 07:44:54;;;;;;;45.75;10.45;;;4.70;99.90;;;;;;5011000;28;20053;-50
2022/01/18 07:47:23;;;;;;;34.53;10.82;;;4.80;99.90;;;;;;5028636;28;20502;-46
2022/01/18 07:49:49;;;;;;;37.55;10.77;;;4.90;99.90;;;;;;5043444;28;20110;-46
2022/01/18 07:52:18;;;;;;;33.78;11.15;;;4.80;99.90;;;;;;5042999;28;20368;-48
2022/01/18 07:54:44;;;;;;;34.08;9.90;;;4.80;99.90;;;;;;5043059;28;20084;-47
2022/01/18 07:57:15;;;;;;;27.10;8.40;;;4.90;99.90;;;;;;5042580;28;20163;-49
2022/01/18 07:59:41;;;;;;;26.35;8.63;;;5.00;99.90;;;;;;5043570;28;20136;-47
2022/01/18 08:02:07;;;;;;;31.13;8.25;;;4.90;99.90;;;;;;5043546;28;20493;-46
2022/01/18 08:04:33;;;;;;;24.23;7.93;;;4.90;99.90;;;;;;5045865;28;20417;-47
2022/01/18 08:06:58;;;;;;;21.88;7.95;;;5.00;99.90;;;;;;5039822;28;20044;-49
2022/01/18 08:09:24;;;;;;;30.00;7.32;;;5.10;99.90;;;;;;5038127;28;20119;-46
2022/01/18 08:11:52;;;;;;;23.02;7.07;;;5.10;99.90;;;;;;5039531;28;20134;-46
2022/01/18 08:14:18;;;;;;;29.45;7.13;;;5.10;99.90;;;;;;5037533;28;20067;-46
2022/01/18 08:17:00;;;;;;;30.67;7.03;;;5.20;99.90;;;;;;5016511;28;20057;-47
2022/01/18 08:19:30;;;;;;;23.58;5.50;;;5.20;99.90;;;;;;5024670;28;20096;-47
2022/01/18 08:21:57;;;;;;;27.88;6.70;;;5.30;99.90;;;;;;5042124;28;20044;-47
2022/01/18 08:24:23;;;;;;;23.42;5.57;;;5.30;99.90;;;;;;5032801;28;20461;-48
2022/01/18 08:26:53;;;;;;;21.13;5.55;;;5.30;99.90;;;;;;5042593;28;20057;-49
2022/01/18 08:29:24;;;;;;;24.48;5.57;;;5.30;99.90;;;;;;5037915;28;20044;-46
2022/01/18 08:31:50;;;;;;;16.45;5.32;;;5.40;99.90;;;;;;5036736;28;20118;-47
2022/01/18 08:34:15;;;;;;;21.40;5.55;;;5.30;99.90;;;;;;5034622;28;20045;-47
2022/01/18 08:36:41;;;;;;;28.45;6.20;;;5.40;99.90;;;;;;5036042;28;20048;-46
2022/01/18 08:39:08;;;;;;;24.90;6.80;;;5.40;99.90;;;;;;5041328;28;20812;-47
2022/01/18 08:41:34;;;;;;;24.67;5.95;;;5.40;99.90;;;;;;5039637;28;20052;-48
2022/01/18 08:44:00;;;;;;;25.77;6.80;;;5.50;99.90;;;;;;5038436;28;20063;-46
2022/01/18 08:46:26;;;;;;;24.83;7.15;;;5.50;99.90;;;;;;5036455;28;20040;-48
2022/01/18 08:48:52;;;;;;;27.55;6.88;;;5.50;99.90;;;;;;5035696;28;20124;-47
2022/01/18 08:51:18;;;;;;;28.67;6.55;;;5.50;99.90;;;;;;5041163;28;20048;-48
2022/01/18 08:53:48;;;;;;;27.48;7.00;;;5.50;99.90;;;;;;5039294;28;20037;-50
2022/01/18 08:56:18;;;;;;;32.25;7.30;;;5.50;99.90;;;;;;5038767;28;20049;-49
2022/01/18 08:58:46;;;;;;;28.60;6.47;;;5.50;99.90;;;;;;5039348;28;20060;-46
2022/01/18 09:01:12;;;;;;;26.58;6.55;;;5.50;99.90;;;;;;5037579;28;20063;-47
2022/01/18 09:03:38;;;;;;;20.25;5.90;;;5.60;99.90;;;;;;5046267;28;20102;-48
2022/01/18 09:06:06;;;;;;;27.20;6.40;;;5.70;99.90;;;;;;5025025;28;20114;-48
2022/01/18 09:08:34;;;;;;;15.27;5.30;;;5.60;99.90;;;;;;5043532;28;20507;-47
2022/01/18 09:11:00;;;;;;;26.58;6.55;;;5.70;99.90;;;;;;5044652;28;20144;-47
2022/01/18 09:13:34;;;;;;;23.63;5.80;;;5.70;99.90;;;;;;5044516;28;20047;-46
2022/01/18 09:16:00;;;;;;;24.10;6.55;;;5.70;99.90;;;;;;5043056;28;20056;-47
2022/01/18 09:18:27;;;;;;;22.67;6.80;;;5.70;99.90;;;;;;5043390;28;20044;-47
2022/01/18 09:20:52;;;;;;;24.55;7.82;;;5.80;99.90;;;;;;5042924;28;20045;-47
2022/01/18 09:23:18;;;;;;;25.05;8.20;;;5.70;99.90;;;;;;5042704;28;20106;-46
2022/01/18 09:25:44;;;;;;;37.78;9.02;;;5.70;99.90;;;;;;5042663;28;20051;-46
2022/01/18 09:28:44;;;;;;;30.80;9.48;;;5.70;99.90;;;;;;5046513;28;20040;-48
2022/01/18 09:31:29;;;;;;;25.85;8.60;;;5.70;99.90;;;;;;5050003;28;20060;-46
2022/01/18 09:33:55;;;;;;;20.83;7.78;;;5.70;99.90;;;;;;5051559;28;20037;-46
2022/01/18 09:40:44;;;;;;;41.85;13.93;;;5.70;99.90;;;;;;5051281;28;20083;-47
2022/01/18 09:43:20;;;;;;;33.72;12.82;;;5.70;99.90;;;;;;5030326;28;20052;-47
2022/01/18 09:46:05;;;;;;;38.88;13.50;;;5.70;99.90;;;;;;5046786;28;20045;-49
2022/01/18 09:48:31;;;;;;;30.92;12.45;;;5.80;99.90;;;;;;5045312;28;20525;-50
2022/01/18 09:50:59;;;;;;;30.25;11.05;;;5.80;99.90;;;;;;5046950;28;20093;-47
2022/01/18 09:53:27;;;;;;;31.42;11.10;;;5.80;99.90;;;;;;5039433;28;20593;-47
2022/01/18 09:55:53;;;;;;;22.05;10.15;;;5.80;99.90;;;;;;5027140;28;20574;-46
2022/01/18 09:58:31;;;;;;;28.35;8.25;;;5.80;99.90;;;;;;5044878;28;20065;-49
2022/01/18 10:00:58;;;;;;;22.63;8.60;;;5.70;99.90;;;;;;5048482;28;20057;-49
2022/01/18 10:03:41;;;;;;;29.95;9.27;;;5.80;99.90;;;;;;5049823;28;20045;-48
2022/01/18 10:06:10;;;;;;;28.05;9.75;;;5.90;99.90;;;;;;5029043;28;20407;-53
2022/01/18 10:08:41;;;;;;;26.10;9.95;;;5.90;99.90;;;;;;5044527;28;20204;-50
2022/01/18 10:11:22;;;;;;;20.67;7.90;;;5.80;99.90;;;;;;5043790;28;20045;-50
2022/01/18 10:13:57;;;;;;;20.15;9.65;;;5.80;99.90;;;;;;5046691;28;20098;-46
2022/01/18 10:16:23;;;;;;;26.58;10.95;;;5.80;99.90;;;;;;5024861;28;20451;-49
2022/01/18 10:19:05;;;;;;;26.90;10.48;;;5.90;99.90;;;;;;5033513;28;20440;-46
2022/01/18 10:21:40;;;;;;;35.90;13.50;;;5.90;99.90;;;;;;5017362;28;20045;-46
2022/01/18 10:24:25;;;;;;;28.00;10.13;;;5.90;99.90;;;;;;5035169;28;20053;-48
2022/01/18 10:26:57;;;;;;;13.68;6.22;;;5.90;99.90;;;;;;5040050;28;20455;-47
2022/01/18 10:29:33;;;;;;;11.47;4.57;;;6.00;99.90;;;;;;5039149;28;20538;-48
2022/01/18 10:32:09;;;;;;;13.18;6.13;;;6.00;99.90;;;;;;5036146;28;20747;-47
2022/01/18 10:35:03;;;;;;;15.30;6.72;;;6.00;99.90;;;;;;5014785;28;20056;-47
2022/01/18 10:37:29;;;;;;;22.45;9.85;;;5.90;99.90;;;;;;5032714;28;20411;-47
2022/01/18 10:40:15;;;;;;;28.20;9.40;;;5.90;99.90;;;;;;5037534;28;20057;-46
2022/01/18 10:42:51;;;;;;;23.15;7.80;;;6.00;99.90;;;;;;5036068;28;20045;-47
2022/01/18 10:45:38;;;;;;;26.05;8.57;;;6.00;99.90;;;;;;5033507;28;20116;-47
2022/01/18 10:48:14;;;;;;;24.17;9.13;;;6.10;99.90;;;;;;5032749;28;20052;-47
2022/01/18 10:50:43;;;;;;;27.80;10.68;;;6.10;99.90;;;;;;5036008;28;20051;-47
2022/01/18 10:53:15;;;;;;;30.25;11.80;;;6.10;99.90;;;;;;5032884;28;20550;-47
2022/01/18 10:55:44;;;;;;;28.27;11.15;;;6.20;99.90;;;;;;5033882;28;20395;-47
2022/01/18 10:58:16;;;;;;;24.30;10.35;;;6.20;99.90;;;;;;5039619;28;20558;-47
2022/01/18 11:00:42;;;;;;;26.58;12.52;;;6.20;99.90;;;;;;5036685;28;20064;-48
2022/01/18 11:03:11;;;;;;;33.30;14.55;;;6.20;99.90;;;;;;5038980;28;20505;-47
2022/01/18 11:05:39;;;;;;;35.25;15.77;;;6.30;99.90;;;;;;5036598;28;20047;-47
2022/01/18 11:08:06;;;;;;;28.90;12.50;;;6.20;99.90;;;;;;5036787;28;20511;-47
2022/01/18 11:10:35;;;;;;;25.63;10.65;;;6.20;99.90;;;;;;5039038;28;20057;-46
2022/01/18 11:13:06;;;;;;;25.17;10.98;;;6.20;99.90;;;;;;5041347;28;20056;-51
2022/01/18 11:15:35;;;;;;;26.85;10.98;;;6.20;99.90;;;;;;5019540;28;20574;-49
2022/01/18 11:18:29;;;;;;;25.10;10.52;;;6.20;99.90;;;;;;5038177;28;20060;-50
2022/01/18 11:20:56;;;;;;;23.80;9.52;;;6.20;99.90;;;;;;5037937;28;20698;-46
2022/01/18 11:23:24;;;;;;;28.20;10.25;;;6.20;99.90;;;;;;5025495;28;20134;-47
2022/01/18 11:25:59;;;;;;;22.30;8.05;;;6.20;99.90;;;;;;5042745;28;20095;-46
2022/01/18 11:28:55;;;;;;;22.67;10.13;;;6.20;99.90;;;;;;5048165;28;20053;-47
2022/01/18 11:31:21;;;;;;;28.35;11.20;;;6.10;99.90;;;;;;5046993;28;20529;-46
2022/01/18 11:38:11;;;;;;;30.40;10.88;;;6.10;99.90;;;;;;5047779;28;20106;-47
2022/01/18 11:41:10;;;;;;;23.42;9.68;;;6.10;99.90;;;;;;5045947;28;20045;-46
2022/01/18 11:44:15;;;;;;;22.08;9.18;;;6.10;99.90;;;;;;5031430;28;20103;-47
2022/01/18 11:46:52;;;;;;;25.48;9.90;;;6.10;99.90;;;;;;5050013;28;20055;-47
2022/01/18 11:52:37;;;;;;;19.70;8.38;;;6.10;99.90;;;;;;5419531;22;20071;-47
2022/01/18 11:55:04;;;;;;;19.67;9.52;;;6.20;99.90;;;;;;5047074;28;20053;-48
2022/01/18 11:57:32;;;;;;;22.63;9.40;;;6.20;99.90;;;;;;5013264;28;20452;-47
2022/01/18 11:59:58;;;;;;;24.50;8.65;;;6.20;99.90;;;;;;5047485;28;20051;-48
2022/01/18 12:02:42;;;;;;;21.35;8.15;;;6.10;99.90;;;;;;5046759;28;20056;-46
2022/01/18 12:05:17;;;;;;;;;;;6.10;99.90;;;;;;5044459;28;20044;-47
2022/01/18 12:07:44;;;;;;;14.98;6.30;;;6.20;99.90;;;;;;5037913;28;20449;-48
2022/01/18 12:10:33;;;;;;;14.10;5.57;;;6.20;99.90;;;;;;5040418;28;20076;-49
2022/01/18 12:13:23;;;;;;;14.18;6.65;;;6.20;99.90;;;;;;5034061;28;20091;-48
2022/01/18 12:15:50;;;;;;;19.08;6.13;;;6.20;99.90;;;;;;4999536;28;20494;-49
2022/01/18 12:18:22;;;;;;;15.68;7.32;;;6.20;99.90;;;;;;5038818;28;20477;-49
2022/01/18 12:20:50;;;;;;;18.70;7.28;;;6.10;99.90;;;;;;5018333;28;20088;-47
2022/01/18 12:23:22;;;;;;;19.73;8.05;;;6.10;99.90;;;;;;5036402;28;20041;-47
2022/01/18 12:25:56;;;;;;;22.05;10.50;;;6.10;99.90;;;;;;5032618;28;20052;-47
2022/01/18 12:37:01;;;;;;;22.40;10.13;;;5.90;99.90;;;;;;5035989;28;20048;-49
2022/01/18 12:39:27;;;;;;;30.58;9.88;;;5.80;99.90;;;;;;5041958;28;20483;-47
2022/01/18 12:41:55;;;;;;;24.13;11.05;;;5.70;99.90;;;;;;5042924;28;20055;-47
2022/01/18 12:44:21;;;;;;;24.67;13.02;;;5.80;99.90;;;;;;5044237;28;20173;-46
2022/01/18 12:46:52;;;;;;;23.95;10.45;;;5.80;99.90;;;;;;5024811;28;20045;-47
2022/01/18 12:49:19;;;;;;;19.48;9.30;;;5.80;99.90;;;;;;5043935;28;20059;-47
2022/01/18 12:51:44;;;;;;;20.73;8.05;;;5.80;99.90;;;;;;5043803;28;20148;-47
2022/01/18 12:54:11;;;;;;;16.60;7.20;;;5.80;99.90;;;;;;5045117;28;20049;-49
2022/01/18 12:56:36;;;;;;;20.45;7.72;;;5.70;99.90;;;;;;5046190;28;20072;-48
2022/01/18 12:59:04;;;;;;;22.90;7.40;;;5.70;99.90;;;;;;5042598;28;20156;-49
2022/01/18 13:01:31;;;;;;;17.30;7.50;;;5.80;99.90;;;;;;5025332;28;20503;-47
2022/01/18 13:03:57;;;;;;;23.75;7.82;;;5.80;99.90;;;;;;5043655;28;20053;-47
2022/01/18 13:06:25;;;;;;;19.15;7.72;;;5.70;99.90;;;;;;5043833;28;20562;-47
2022/01/18 13:08:58;;;;;;;23.33;8.55;;;5.70;99.90;;;;;;5043446;28;20049;-46
2022/01/18 13:11:26;;;;;;;23.25;9.75;;;5.70;99.90;;;;;;5043205;28;20036;-48
2022/01/18 13:13:59;;;;;;;21.25;9.38;;;5.70;99.90;;;;;;5041966;28;20080;-49
2022/01/18 13:27:19;;;;;;;36.92;10.25;;;5.50;99.90;;;;;;5043149;28;20060;-48
2022/01/18 13:29:48;;;;;;;29.25;10.88;;;5.50;99.90;;;;;;5025041;28;20053;-46
2022/01/18 13:32:24;;;;;;;31.77;11.90;;;5.50;99.90;;;;;;5024444;28;20061;-46
2022/01/18 13:34:55;;;;;;;34.97;10.85;;;5.50;99.90;;;;;;5023907;28;20071;-47
2022/01/18 13:37:26;;;;;;;32.20;12.07;;;5.50;99.90;;;;;;5024618;28;20060;-47
2022/01/18 13:39:57;;;;;;;36.35;13.13;;;5.50;99.90;;;;;;5041486;28;20045;-46
2022/01/18 13:42:28;;;;;;;36.45;12.57;;;5.50;99.90;;;;;;5041180;28;20049;-47
2022/01/18 13:45:07;;;;;;;41.60;12.07;;;5.50;99.90;;;;;;5023133;28;20156;-47
2022/01/18 13:47:38;;;;;;;38.85;11.20;;;5.50;99.90;;;;;;5042513;28;20103;-48
2022/01/18 13:50:31;;;;;;;54.80;10.52;;;5.60;99.90;;;;;;5041669;28;20084;-47
2022/01/18 13:53:07;;;;;;;57.97;10.57;;;5.50;99.90;;;;;;4942832;28;20114;-48
2022/01/18 13:55:37;;;;;;;49.72;10.30;;;5.50;99.90;;;;;;4942866;28;22257;-49
2022/01/18 13:58:03;;;;;;;46.88;12.65;;;5.50;99.90;;;;;;4964361;28;20067;-47
2022/01/18 14:00:30;;;;;;;37.63;12.35;;;5.50;99.90;;;;;;4960945;28;20556;-47
2022/01/18 14:02:56;;;;;;;33.60;12.73;;;5.50;99.90;;;;;;4947892;28;20134;-50
2022/01/18 14:05:24;;;;;;;29.30;12.45;;;5.50;99.90;;;;;;4944310;28;20146;-48
2022/01/18 14:08:10;;;;;;;38.83;11.25;;;5.50;99.90;;;;;;4964086;28;20129;-50
2022/01/18 14:10:36;;;;;;;34.58;13.55;;;5.60;99.90;;;;;;4944243;28;20063;-53
2022/01/18 14:13:03;;;;;;;54.40;11.85;;;5.60;99.90;;;;;;4943921;28;20515;-49
2022/01/18 14:15:44;;;;;;;38.53;12.43;;;5.50;99.90;;;;;;4960183;28;20047;-48
2022/01/18 14:18:10;;;;;;;40.67;15.43;;;5.50;99.90;;;;;;4959393;28;20050;-45
2022/01/18 14:20:38;;;;;;;58.50;17.77;;;5.60;99.90;;;;;;4959857;28;20054;-49
2022/01/18 14:23:15;;;;;;;52.33;17.33;;;5.50;99.90;;;;;;4958369;28;20068;-46
2022/01/18 14:25:41;;;;;;;84.95;17.23;;;5.50;99.90;;;;;;4947881;28;20201;-47
2022/01/18 14:28:14;;;;;;;60.28;16.05;;;5.40;99.90;;;;;;4960658;28;20051;-47
2022/01/18 14:30:43;;;;;;;;;;;5.40;99.90;;;;;;5009144;28;20083;-46
2022/01/18 14:33:13;;;;;;;45.72;18.02;;;5.30;99.90;;;;;;5034791;28;20019;-47
2022/01/18 14:35:43;;;;;;;48.72;18.83;;;5.30;99.90;;;;;;5030903;28;20482;-47
2022/01/18 14:38:14;;;;;;;54.83;20.63;;;5.40;99.90;;;;;;5019508;28;20132;-46
2022/01/18 14:40:42;;;;;;;46.28;20.30;;;5.30;99.90;;;;;;5021096;28;20045;-48
2022/01/18 14:43:13;;;;;;;72.00;21.35;;;5.40;99.90;;;;;;5020691;28;20099;-46
2022/01/18 14:46:18;;;;;;;48.13;18.50;;;5.30;99.90;;;;;;5018709;28;20530;-46
2022/01/18 14:48:44;;;;;;;51.30;18.67;;;5.30;99.90;;;;;;5021460;28;20541;-47